Time;durP1;ratioP1;P1;durP2;ratioP2;P2;SDS_P1;SDS_P2;PMS_P1;PMS_P2;Temp;Humidity;BMP_temperature;BMP_pressure;BME280_temperature;BME280_humidity;BME280_pressure;Samples;Min_cycle;Max_cycle;Signal;HPM_P1;HPM_P2
2023/05/29 00:00:20;;;;;;;3.53;1.10;;;15.20;99.90;;;;;;4995720;28;20602;-73
2023/05/29 00:02:52;;;;;;;2.60;1.05;;;15.40;99.90;;;;;;4977327;28;20208;-72
2023/05/29 00:05:23;;;;;;;2.13;0.90;;;15.60;99.90;;;;;;4982700;28;20223;-73
2023/05/29 00:07:54;;;;;;;1.92;0.73;;;15.70;99.90;;;;;;4996209;28;20194;-73
2023/05/29 00:10:25;;;;;;;3.92;0.70;;;15.80;99.90;;;;;;4994367;28;20210;-73
2023/05/29 00:12:57;;;;;;;3.63;0.80;;;15.90;99.90;;;;;;4995688;28;20654;-73
2023/05/29 00:15:30;;;;;;;2.67;0.95;;;16.10;99.90;;;;;;4992638;28;20254;-73
2023/05/29 00:18:01;;;;;;;0.80;0.60;;;16.10;99.90;;;;;;4976521;28;20195;-73
2023/05/29 00:20:34;;;;;;;2.05;0.70;;;16.20;99.90;;;;;;4977197;28;21781;-73
2023/05/29 00:23:05;;;;;;;3.00;0.73;;;16.30;99.90;;;;;;5003020;28;20647;-73
2023/05/29 00:25:37;;;;;;;1.05;0.60;;;16.40;99.90;;;;;;4994817;28;20227;-73
2023/05/29 00:28:09;;;;;;;1.48;0.80;;;16.50;99.90;;;;;;4993372;28;20200;-73
2023/05/29 00:30:42;;;;;;;4.68;2.67;;;16.60;99.90;;;;;;4990987;28;20199;-72
2023/05/29 00:33:13;;;;;;;1.42;0.70;;;16.70;99.90;;;;;;4993906;28;20196;-72
2023/05/29 00:35:44;;;;;;;0.93;0.60;;;16.80;99.90;;;;;;4993377;28;20207;-72
2023/05/29 00:38:16;;;;;;;2.13;0.70;;;16.90;99.90;;;;;;4993486;28;20242;-72
2023/05/29 00:40:47;;;;;;;1.80;0.70;;;17.10;99.90;;;;;;4991954;28;20196;-72
2023/05/29 00:43:18;;;;;;;2.03;0.63;;;17.20;99.90;;;;;;4998314;28;20200;-72
2023/05/29 00:45:51;;;;;;;1.10;0.52;;;17.30;99.90;;;;;;4993177;28;20222;-73
2023/05/29 00:48:22;;;;;;;1.77;0.70;;;17.40;99.90;;;;;;4992812;28;20208;-72
2023/05/29 00:50:54;;;;;;;0.73;0.50;;;17.40;99.90;;;;;;4997869;28;20199;-73
2023/05/29 00:53:26;;;;;;;1.13;0.50;;;17.50;99.90;;;;;;4992376;28;20200;-73
2023/05/29 00:55:57;;;;;;;0.55;0.50;;;17.60;99.90;;;;;;4995119;28;20200;-72
2023/05/29 00:58:29;;;;;;;0.95;0.43;;;17.60;99.90;;;;;;4992727;28;20315;-72
2023/05/29 01:01:03;;;;;;;2.42;0.40;;;17.70;99.90;;;;;;4990063;28;20231;-72
2023/05/29 01:03:35;;;;;;;0.88;0.32;;;17.80;99.90;;;;;;4994587;28;20199;-72
2023/05/29 01:06:07;;;;;;;1.67;0.43;;;17.90;99.90;;;;;;4995755;28;20235;-73
2023/05/29 01:08:38;;;;;;;1.33;0.63;;;18.00;99.90;;;;;;5004193;28;20287;-73
2023/05/29 01:11:15;;;;;;;1.65;0.50;;;18.10;99.90;;;;;;5006575;28;20196;-73
2023/05/29 01:13:49;;;;;;;0.85;0.38;;;18.20;99.90;;;;;;4993709;28;20663;-73
2023/05/29 01:16:35;;;;;;;3.38;0.43;;;18.30;99.90;;;;;;4992566;28;20209;-72
2023/05/29 01:19:21;;;;;;;0.65;0.32;;;18.40;99.90;;;;;;4993975;28;20196;-73
2023/05/29 01:22:07;;;;;;;0.60;0.60;;;18.50;99.90;;;;;;4991781;28;20568;-74
2023/05/29 01:24:48;;;;;;;0.30;0.30;;;18.40;99.90;;;;;;4993418;28;20235;-74
2023/05/29 01:27:25;;;;;;;0.85;0.50;;;18.50;99.90;;;;;;4991700;28;20203;-74
2023/05/29 01:29:57;;;;;;;2.80;0.80;;;18.60;99.90;;;;;;4982404;28;20278;-74
2023/05/29 01:32:30;;;;;;;2.22;1.00;;;18.70;99.90;;;;;;4994532;28;20214;-73
2023/05/29 01:35:01;;;;;;;1.30;0.70;;;18.70;99.90;;;;;;4994618;28;20290;-74
2023/05/29 01:37:32;;;;;;;0.73;0.50;;;18.80;99.90;;;;;;4994222;28;20210;-73
2023/05/29 01:40:04;;;;;;;2.85;0.50;;;18.90;99.90;;;;;;4994063;28;20204;-74
2023/05/29 01:42:37;;;;;;;2.03;0.40;;;18.90;99.90;;;;;;4994296;28;20659;-74
2023/05/29 01:45:09;;;;;;;0.88;0.50;;;18.90;99.90;;;;;;4994017;28;20225;-73
2023/05/29 01:47:41;;;;;;;1.25;0.50;;;18.90;99.90;;;;;;4981515;28;20201;-74
2023/05/29 01:50:13;;;;;;;2.50;0.50;;;19.00;99.90;;;;;;4994744;28;20524;-73
2023/05/29 01:52:44;;;;;;;1.85;0.50;;;19.10;99.90;;;;;;4993998;28;20200;-74
2023/05/29 01:55:16;;;;;;;0.50;0.30;;;19.10;99.90;;;;;;4992756;28;20612;-75
2023/05/29 01:57:50;;;;;;;2.38;0.63;;;19.20;99.90;;;;;;4992917;28;20569;-73
2023/05/29 02:00:22;;;;;;;0.50;0.50;;;19.00;99.90;;;;;;4988159;28;21742;-73
2023/05/29 02:02:53;;;;;;;1.85;0.32;;;19.00;99.90;;;;;;4989339;28;20625;-73
2023/05/29 02:05:24;;;;;;;0.80;0.40;;;19.00;99.90;;;;;;4990508;28;20224;-73
2023/05/29 02:07:55;;;;;;;1.02;0.40;;;19.10;99.90;;;;;;4991553;28;20196;-73
2023/05/29 02:10:26;;;;;;;1.35;0.60;;;19.20;99.90;;;;;;4991953;28;20206;-72
2023/05/29 02:12:59;;;;;;;1.13;0.40;;;19.50;99.90;;;;;;4989270;28;20379;-75
2023/05/29 02:15:31;;;;;;;0.30;0.30;;;19.50;99.90;;;;;;4985293;28;20203;-74
2023/05/29 02:18:03;;;;;;;0.65;0.57;;;19.60;99.90;;;;;;4993825;28;20226;-76
2023/05/29 02:20:34;;;;;;;0.77;0.40;;;19.70;99.90;;;;;;4976764;28;20249;-75
2023/05/29 02:23:05;;;;;;;1.38;0.50;;;19.80;99.90;;;;;;4992420;28;20195;-76
2023/05/29 02:25:36;;;;;;;1.02;0.50;;;19.80;99.90;;;;;;4993465;28;20227;-73
2023/05/29 02:28:09;;;;;;;0.63;0.55;;;19.90;99.90;;;;;;4992077;28;20202;-75
2023/05/29 02:30:40;;;;;;;0.40;0.40;;;20.00;99.90;;;;;;4993236;28;20203;-73
2023/05/29 02:33:11;;;;;;;1.10;0.40;;;20.00;99.90;;;;;;4991599;28;20199;-73
2023/05/29 02:35:42;;;;;;;2.28;0.20;;;20.10;99.90;;;;;;4990843;28;20210;-73
2023/05/29 02:38:13;;;;;;;1.65;0.35;;;20.20;99.90;;;;;;4985767;28;20200;-73
2023/05/29 02:40:45;;;;;;;0.57;0.43;;;20.30;99.90;;;;;;4993603;28;20203;-73
2023/05/29 02:43:19;;;;;;;1.50;0.30;;;20.30;99.90;;;;;;4993694;28;20195;-77
2023/05/29 02:45:50;;;;;;;0.22;0.20;;;20.20;99.90;;;;;;4993081;28;20698;-74
2023/05/29 02:48:21;;;;;;;0.25;0.20;;;20.10;99.90;;;;;;4991716;28;20200;-74
2023/05/29 02:50:53;;;;;;;1.40;0.30;;;20.20;99.90;;;;;;4988797;28;20199;-73
2023/05/29 02:53:24;;;;;;;0.30;0.20;;;20.30;99.90;;;;;;4992392;28;20200;-77
2023/05/29 02:55:55;;;;;;;1.33;0.38;;;20.30;99.90;;;;;;4993743;28;20202;-74
2023/05/29 02:58:28;;;;;;;0.98;0.38;;;20.30;99.90;;;;;;4993422;28;20230;-75
2023/05/29 03:01:00;;;;;;;1.15;0.30;;;20.30;99.90;;;;;;5004242;28;20325;-74
2023/05/29 03:03:31;;;;;;;1.25;0.50;;;20.30;99.90;;;;;;5010234;28;20191;-74
2023/05/29 03:06:02;;;;;;;1.65;0.45;;;20.30;99.90;;;;;;4989343;28;20717;-73
2023/05/29 03:08:34;;;;;;;1.20;0.32;;;20.50;99.90;;;;;;4991578;28;20200;-73
2023/05/29 03:11:05;;;;;;;1.58;0.45;;;20.60;99.90;;;;;;4988876;28;20200;-74
2023/05/29 03:13:38;;;;;;;1.08;0.50;;;20.80;99.90;;;;;;4988454;28;20235;-75
2023/05/29 03:16:09;;;;;;;0.38;0.30;;;20.90;99.90;;;;;;4987473;28;20199;-74
2023/05/29 03:18:41;;;;;;;0.75;0.20;;;20.90;99.90;;;;;;4985168;28;20204;-74
2023/05/29 03:21:12;;;;;;;1.00;0.20;;;20.90;99.90;;;;;;4982399;28;20196;-75
2023/05/29 03:23:44;;;;;;;0.10;0.10;;;20.90;99.90;;;;;;4992883;28;20188;-76
2023/05/29 03:26:15;;;;;;;0.50;0.20;;;20.80;99.90;;;;;;4992980;28;20223;-74
2023/05/29 03:28:48;;;;;;;0.77;0.20;;;20.60;99.90;;;;;;4993436;28;20578;-75
2023/05/29 03:31:19;;;;;;;0.30;0.20;;;20.50;99.90;;;;;;4992773;28;20191;-74
2023/05/29 03:33:51;;;;;;;1.08;0.20;;;20.50;99.90;;;;;;4996976;28;20238;-73
2023/05/29 03:36:22;;;;;;;0.20;0.13;;;20.50;99.90;;;;;;4979195;28;20188;-76
2023/05/29 03:38:53;;;;;;;0.90;0.13;;;20.50;99.90;;;;;;4977342;28;20188;-76
2023/05/29 03:41:25;;;;;;;0.30;0.17;;;20.60;99.90;;;;;;4983670;28;20204;-73
2023/05/29 03:43:58;;;;;;;0.85;0.20;;;20.80;99.90;;;;;;4995548;28;20208;-72
2023/05/29 03:46:30;;;;;;;2.70;0.20;;;20.70;99.90;;;;;;4992794;28;20690;-72
2023/05/29 03:49:01;;;;;;;0.35;0.20;;;20.70;99.90;;;;;;4980868;28;20200;-72
2023/05/29 03:51:32;;;;;;;0.65;0.20;;;20.80;99.90;;;;;;4996567;28;20240;-73
2023/05/29 03:54:03;;;;;;;1.40;0.20;;;20.70;99.90;;;;;;4993284;28;20204;-73
2023/05/29 03:56:35;;;;;;;1.27;0.28;;;20.60;99.90;;;;;;4993616;28;21098;-72
2023/05/29 03:59:08;;;;;;;2.78;0.30;;;20.70;99.90;;;;;;4995583;28;20219;-72
2023/05/29 04:01:39;;;;;;;1.58;0.30;;;20.70;99.90;;;;;;4992967;28;20200;-73
2023/05/29 04:04:10;;;;;;;1.83;0.40;;;20.80;99.90;;;;;;4993115;28;20203;-73
2023/05/29 04:06:41;;;;;;;3.33;0.43;;;20.80;99.90;;;;;;4990949;28;20215;-74
2023/05/29 04:09:12;;;;;;;1.25;0.40;;;20.90;99.90;;;;;;4979248;28;20566;-73
2023/05/29 04:11:44;;;;;;;1.05;0.77;;;20.90;99.90;;;;;;4980317;28;20187;-73
2023/05/29 04:14:17;;;;;;;0.90;0.50;;;20.80;99.90;;;;;;4995032;28;20606;-73
2023/05/29 04:16:48;;;;;;;0.40;0.32;;;20.70;99.90;;;;;;4995938;28;20211;-72
2023/05/29 04:19:20;;;;;;;1.40;0.50;;;20.60;99.90;;;;;;4980955;28;20192;-72
2023/05/29 04:21:52;;;;;;;1.85;0.50;;;20.50;99.90;;;;;;4992803;28;20207;-76
2023/05/29 04:24:24;;;;;;;1.55;0.68;;;20.50;99.90;;;;;;4994632;28;20589;-72
2023/05/29 04:26:55;;;;;;;0.82;0.30;;;20.60;99.90;;;;;;4995931;28;20219;-72
2023/05/29 04:29:28;;;;;;;1.55;0.32;;;20.50;99.90;;;;;;4994569;28;20254;-74
2023/05/29 04:32:03;;;;;;;0.30;0.30;;;20.50;99.90;;;;;;4980484;28;20195;-73
2023/05/29 04:34:34;;;;;;;2.85;0.50;;;20.50;99.90;;;;;;4994877;28;20202;-74
2023/05/29 04:37:05;;;;;;;1.70;0.43;;;20.40;99.90;;;;;;4988063;28;20246;-73
2023/05/29 04:39:36;;;;;;;1.65;0.47;;;20.40;99.90;;;;;;4994399;28;20203;-74
2023/05/29 04:42:08;;;;;;;1.00;0.40;;;20.30;99.90;;;;;;4995765;28;20199;-73
2023/05/29 04:44:43;;;;;;;1.63;0.40;;;20.40;99.90;;;;;;4991464;28;20207;-73
2023/05/29 04:47:15;;;;;;;0.63;0.45;;;20.40;99.90;;;;;;4993296;28;20211;-75
2023/05/29 04:49:50;;;;;;;0.43;0.43;;;20.40;99.90;;;;;;4994746;28;20187;-74
2023/05/29 04:52:21;;;;;;;1.10;0.50;;;20.40;99.90;;;;;;4993860;28;20199;-73
2023/05/29 04:54:53;;;;;;;0.40;0.40;;;20.40;99.90;;;;;;4993167;28;20204;-74
2023/05/29 04:57:24;;;;;;;0.68;0.40;;;20.20;99.90;;;;;;4993814;28;20203;-73
2023/05/29 04:59:57;;;;;;;0.45;0.40;;;20.10;99.90;;;;;;4994210;28;20239;-74
2023/05/29 05:02:28;;;;;;;0.55;0.50;;;20.00;99.90;;;;;;4994552;28;20209;-73
2023/05/29 05:04:59;;;;;;;0.43;0.40;;;20.00;99.90;;;;;;4979175;28;20200;-70
2023/05/29 05:07:30;;;;;;;0.88;0.50;;;20.00;99.90;;;;;;4990821;28;20703;-73
2023/05/29 05:10:01;;;;;;;0.57;0.40;;;19.90;99.90;;;;;;4994791;28;20206;-74
2023/05/29 05:12:32;;;;;;;0.60;0.55;;;19.90;99.90;;;;;;4989980;28;20199;-74
2023/05/29 05:15:05;;;;;;;1.50;0.60;;;19.90;99.90;;;;;;4992049;28;20655;-72
2023/05/29 05:17:37;;;;;;;0.65;0.52;;;19.80;99.90;;;;;;4987477;28;20550;-74
2023/05/29 05:20:09;;;;;;;3.55;0.68;;;19.90;99.90;;;;;;4991802;28;20222;-72
2023/05/29 05:22:40;;;;;;;2.15;0.60;;;19.80;99.90;;;;;;4991341;28;20215;-73
2023/05/29 05:25:12;;;;;;;1.55;0.70;;;19.80;99.90;;;;;;4988495;28;20535;-73
2023/05/29 05:27:43;;;;;;;1.20;0.60;;;19.90;99.90;;;;;;4993416;28;20270;-72
2023/05/29 05:30:16;;;;;;;1.10;0.70;;;19.90;99.90;;;;;;4992480;28;20242;-72
2023/05/29 05:32:48;;;;;;;0.80;0.70;;;19.80;99.90;;;;;;4991345;28;20283;-72
2023/05/29 05:35:19;;;;;;;0.93;0.73;;;19.80;99.90;;;;;;4994457;28;20207;-72
2023/05/29 05:37:50;;;;;;;0.95;0.70;;;19.80;99.90;;;;;;4993391;28;20215;-73
2023/05/29 05:40:21;;;;;;;0.60;0.60;;;19.70;99.90;;;;;;4994633;28;20200;-72
2023/05/29 05:42:52;;;;;;;1.05;0.70;;;19.70;99.90;;;;;;4993848;28;20203;-72
2023/05/29 05:45:25;;;;;;;0.77;0.60;;;19.70;99.90;;;;;;4993893;28;20200;-73
2023/05/29 05:47:56;;;;;;;1.45;0.60;;;19.70;99.90;;;;;;4994416;28;20581;-72
2023/05/29 05:50:27;;;;;;;0.60;0.60;;;19.60;99.90;;;;;;4993706;28;20535;-72
2023/05/29 05:52:58;;;;;;;0.80;0.70;;;19.60;99.90;;;;;;4991685;28;20206;-73
2023/05/29 05:55:30;;;;;;;2.03;0.80;;;19.50;99.90;;;;;;4993823;28;20629;-72
2023/05/29 05:58:01;;;;;;;1.35;0.50;;;19.50;99.90;;;;;;4994254;28;20231;-73
2023/05/29 06:00:34;;;;;;;1.05;0.60;;;19.50;99.90;;;;;;4993247;28;20239;-73
2023/05/29 06:03:05;;;;;;;1.40;0.73;;;19.50;99.90;;;;;;4994277;28;20192;-73
2023/05/29 06:05:37;;;;;;;0.47;0.47;;;19.50;99.90;;;;;;4994111;28;20219;-73
2023/05/29 06:08:10;;;;;;;1.52;0.70;;;19.40;99.90;;;;;;4990631;28;20615;-73
2023/05/29 06:10:41;;;;;;;0.88;0.50;;;19.40;99.90;;;;;;4993979;28;20211;-75
2023/05/29 06:13:12;;;;;;;0.50;0.40;;;19.30;99.90;;;;;;4994203;28;20196;-73
2023/05/29 06:15:45;;;;;;;1.30;0.40;;;19.20;99.90;;;;;;4994553;28;20206;-73
2023/05/29 06:18:16;;;;;;;1.60;0.47;;;19.20;99.90;;;;;;4992355;28;20603;-73
2023/05/29 06:20:47;;;;;;;0.88;0.40;;;19.10;99.90;;;;;;4993679;28;20210;-73
2023/05/29 06:23:19;;;;;;;1.25;0.50;;;19.10;99.90;;;;;;4994181;28;20195;-74
2023/05/29 06:25:50;;;;;;;1.10;0.43;;;19.00;99.90;;;;;;4994068;28;20279;-73
2023/05/29 06:28:21;;;;;;;0.88;0.40;;;18.90;99.90;;;;;;4994001;28;20241;-73
2023/05/29 06:30:54;;;;;;;0.57;0.47;;;18.90;99.90;;;;;;4993439;28;20195;-73
2023/05/29 06:33:25;;;;;;;2.30;0.68;;;18.80;99.90;;;;;;4982062;28;20199;-73
2023/05/29 06:35:56;;;;;;;0.55;0.38;;;18.80;99.90;;;;;;4991728;28;20203;-73
2023/05/29 06:38:27;;;;;;;1.13;0.60;;;18.70;99.90;;;;;;4990571;28;20199;-73
2023/05/29 06:40:58;;;;;;;1.52;0.60;;;18.60;99.90;;;;;;4992396;28;20203;-74
2023/05/29 06:43:31;;;;;;;2.10;0.60;;;18.50;99.90;;;;;;4992115;28;20195;-73
2023/05/29 06:46:04;;;;;;;5.47;0.80;;;18.40;99.90;;;;;;4993781;28;20647;-73
2023/05/29 06:48:37;;;;;;;4.97;0.90;;;18.30;99.90;;;;;;4992093;28;20196;-73
2023/05/29 06:51:09;;;;;;;2.47;0.80;;;18.20;99.90;;;;;;4993639;28;20196;-73
2023/05/29 06:53:40;;;;;;;3.33;0.88;;;18.10;99.90;;;;;;4993278;28;20287;-73
2023/05/29 06:56:11;;;;;;;1.65;0.77;;;18.00;99.90;;;;;;4993714;28;20200;-72
2023/05/29 06:58:42;;;;;;;1.35;0.60;;;17.90;99.90;;;;;;4993937;28;20227;-73
2023/05/29 07:01:51;;;;;;;2.50;0.60;;;17.80;99.90;;;;;;4993579;28;20235;-72
2023/05/29 07:04:25;;;;;;;1.83;0.52;;;17.80;99.90;;;;;;4993045;28;20214;-73
2023/05/29 07:06:56;;;;;;;2.13;0.80;;;17.70;99.90;;;;;;4995159;28;20235;-73
2023/05/29 07:09:27;;;;;;;2.83;0.70;;;17.60;99.90;;;;;;4997545;28;20207;-73
2023/05/29 07:11:58;;;;;;;0.60;0.55;;;17.60;99.90;;;;;;4997353;28;20262;-73
2023/05/29 07:14:30;;;;;;;2.10;0.70;;;17.50;99.90;;;;;;4996240;28;20195;-73
2023/05/29 07:17:01;;;;;;;1.67;0.70;;;17.50;99.90;;;;;;4997278;28;20653;-74
2023/05/29 07:19:34;;;;;;;0.82;0.60;;;17.50;99.90;;;;;;4997185;28;20200;-73
2023/05/29 07:22:05;;;;;;;2.05;0.50;;;17.40;99.90;;;;;;4997336;28;20188;-74
2023/05/29 07:24:36;;;;;;;1.35;0.55;;;17.40;99.90;;;;;;4997225;28;20213;-74
2023/05/29 07:27:08;;;;;;;0.63;0.50;;;17.30;99.90;;;;;;4997098;28;20228;-73
2023/05/29 07:29:39;;;;;;;1.52;0.70;;;17.30;99.90;;;;;;4996751;28;20257;-73
2023/05/29 07:32:10;;;;;;;1.48;0.70;;;17.20;99.90;;;;;;4995585;28;20663;-73
2023/05/29 07:34:43;;;;;;;3.00;0.93;;;17.20;99.90;;;;;;4996825;28;20639;-73
2023/05/29 07:37:16;;;;;;;1.10;0.90;;;17.10;99.90;;;;;;4997327;28;20193;-72
2023/05/29 07:39:47;;;;;;;0.90;0.65;;;17.10;99.90;;;;;;4995549;28;20214;-73
2023/05/29 07:42:18;;;;;;;1.40;0.70;;;17.00;99.90;;;;;;4996377;28;20195;-73
2023/05/29 07:44:49;;;;;;;2.95;0.80;;;17.00;99.90;;;;;;4996954;28;20242;-73
2023/05/29 07:47:20;;;;;;;1.40;0.68;;;17.00;99.90;;;;;;4996517;28;20219;-73
2023/05/29 07:49:54;;;;;;;1.23;0.70;;;17.00;99.90;;;;;;4996050;28;20675;-73
2023/05/29 07:52:25;;;;;;;2.17;0.82;;;17.00;99.90;;;;;;4996718;28;20192;-73
2023/05/29 07:54:56;;;;;;;2.03;0.75;;;17.00;99.90;;;;;;4995175;28;20204;-73
2023/05/29 07:57:27;;;;;;;1.98;0.60;;;16.90;99.90;;;;;;4996584;28;20199;-73
2023/05/29 07:59:58;;;;;;;2.30;0.77;;;16.90;99.90;;;;;;4993786;28;20247;-72
2023/05/29 08:02:29;;;;;;;1.85;0.80;;;16.90;99.90;;;;;;4992347;28;20200;-73
2023/05/29 08:05:02;;;;;;;0.88;0.57;;;16.90;99.90;;;;;;4993956;28;20682;-73
2023/05/29 08:07:33;;;;;;;2.60;0.77;;;16.90;99.90;;;;;;4994450;28;20247;-73
2023/05/29 08:10:05;;;;;;;1.27;0.60;;;16.90;99.90;;;;;;4995674;28;20192;-73
2023/05/29 08:12:36;;;;;;;3.05;0.82;;;16.80;99.90;;;;;;4993483;28;20561;-73
2023/05/29 08:15:08;;;;;;;1.67;0.80;;;16.80;99.90;;;;;;4992412;28;20199;-73
2023/05/29 08:17:39;;;;;;;0.98;0.70;;;16.80;99.90;;;;;;4995607;28;20191;-73
2023/05/29 08:20:13;;;;;;;2.63;0.80;;;16.80;99.90;;;;;;4993890;28;20632;-73
2023/05/29 08:22:44;;;;;;;1.13;0.75;;;16.80;99.90;;;;;;4990659;28;20204;-74
2023/05/29 08:25:15;;;;;;;1.77;0.90;;;16.80;99.90;;;;;;4988404;28;20279;-74
2023/05/29 08:27:46;;;;;;;3.13;0.88;;;16.80;99.90;;;;;;4990629;28;20219;-73
2023/05/29 08:30:18;;;;;;;0.70;0.70;;;16.80;99.90;;;;;;4993805;28;20199;-74
2023/05/29 08:32:50;;;;;;;2.10;0.80;;;16.70;99.90;;;;;;4995128;28;20634;-73
2023/05/29 08:35:23;;;;;;;1.52;0.90;;;16.60;99.90;;;;;;4995694;28;20210;-74
2023/05/29 08:37:54;;;;;;;1.63;1.05;;;16.60;99.90;;;;;;4991749;28;20199;-74
2023/05/29 08:40:25;;;;;;;2.08;0.75;;;16.60;99.90;;;;;;4994615;28;20200;-73
2023/05/29 08:43:05;;;;;;;2.33;0.93;;;16.50;99.90;;;;;;4995431;28;20207;-73
2023/05/29 08:45:39;;;;;;;1.25;0.90;;;16.50;99.90;;;;;;4995229;28;20203;-73
2023/05/29 08:48:12;;;;;;;4.43;1.10;;;16.40;99.90;;;;;;4995443;28;20226;-73
2023/05/29 08:50:48;;;;;;;3.15;1.00;;;16.40;99.90;;;;;;4993192;28;20207;-74
2023/05/29 08:53:19;;;;;;;2.20;1.10;;;16.30;99.90;;;;;;4993133;28;20568;-73
2023/05/29 08:55:52;;;;;;;2.60;1.30;;;16.30;99.90;;;;;;4989634;28;20199;-73
2023/05/29 08:58:24;;;;;;;2.75;1.40;;;16.20;99.90;;;;;;4993544;28;20642;-73
2023/05/29 09:00:55;;;;;;;3.72;1.33;;;16.10;99.90;;;;;;4994183;28;20603;-74
2023/05/29 09:03:27;;;;;;;3.97;1.50;;;16.10;99.90;;;;;;4992136;28;20196;-73
2023/05/29 09:06:06;;;;;;;1.50;1.20;;;16.00;99.90;;;;;;4992281;28;20212;-73
2023/05/29 09:08:38;;;;;;;2.60;1.38;;;16.00;99.90;;;;;;4995023;28;20223;-73
2023/05/29 09:11:09;;;;;;;2.70;1.20;;;15.90;99.90;;;;;;4993081;28;20195;-74
2023/05/29 09:13:40;;;;;;;2.10;1.20;;;15.90;99.90;;;;;;4993758;28;20238;-74
2023/05/29 09:16:12;;;;;;;1.98;1.10;;;15.80;99.90;;;;;;4992324;28;20568;-73
2023/05/29 09:18:45;;;;;;;3.20;1.25;;;15.80;99.90;;;;;;4994400;28;20659;-73
2023/05/29 09:21:29;;;;;;;1.67;1.10;;;15.70;99.90;;;;;;4985783;28;20207;-73
2023/05/29 09:24:07;;;;;;;1.65;1.10;;;15.60;99.90;;;;;;4990043;28;20282;-73
2023/05/29 09:26:38;;;;;;;3.25;1.52;;;15.60;99.90;;;;;;4991110;28;20195;-73
2023/05/29 09:29:10;;;;;;;2.65;1.40;;;15.60;99.90;;;;;;4993365;28;20222;-73
2023/05/29 09:31:50;;;;;;;2.45;1.38;;;15.50;99.90;;;;;;4994044;28;20199;-73
2023/05/29 09:34:21;;;;;;;1.67;1.25;;;15.40;99.90;;;;;;4992812;28;20290;-73
2023/05/29 09:36:56;;;;;;;2.15;1.30;;;15.40;99.90;;;;;;4992252;28;20669;-73
2023/05/29 09:39:27;;;;;;;2.80;1.27;;;15.30;99.90;;;;;;4992307;28;20210;-73
2023/05/29 09:41:58;;;;;;;2.13;1.40;;;15.20;99.90;;;;;;4993169;28;20659;-73
2023/05/29 09:44:30;;;;;;;3.05;1.48;;;15.10;99.90;;;;;;4992930;28;20206;-73
2023/05/29 09:47:03;;;;;;;3.47;1.40;;;15.00;99.90;;;;;;4989829;28;20549;-73
2023/05/29 09:49:38;;;;;;;4.53;1.63;;;14.90;99.90;;;;;;4993224;28;20207;-73
2023/05/29 09:52:14;;;;;;;3.97;1.70;;;14.90;99.90;;;;;;4992805;28;20310;-73
2023/05/29 09:54:47;;;;;;;2.42;1.70;;;14.90;99.90;;;;;;4993131;28;20207;-73
2023/05/29 09:57:19;;;;;;;3.05;1.60;;;14.90;99.90;;;;;;4992684;28;20203;-73
2023/05/29 09:59:52;;;;;;;5.05;1.80;;;14.90;99.90;;;;;;4992253;28;20231;-73
2023/05/29 10:02:25;;;;;;;3.47;1.67;;;14.90;99.90;;;;;;4992499;28;20242;-73
2023/05/29 10:04:56;;;;;;;4.63;1.75;;;14.90;99.90;;;;;;4992811;28;20242;-73
2023/05/29 10:07:32;;;;;;;3.35;1.70;;;14.90;99.90;;;;;;4993236;28;20691;-73
2023/05/29 10:10:05;;;;;;;5.45;1.85;;;14.90;99.90;;;;;;4984403;28;20242;-73
2023/05/29 10:12:39;;;;;;;5.28;1.83;;;14.90;99.90;;;;;;4991709;28;20204;-74
2023/05/29 10:15:14;;;;;;;2.45;1.50;;;15.00;99.90;;;;;;4989591;28;20200;-73
2023/05/29 10:17:53;;;;;;;4.60;1.83;;;15.00;99.90;;;;;;4993184;28;20261;-73
2023/05/29 10:20:25;;;;;;;3.28;1.80;;;14.90;99.90;;;;;;4992259;28;20211;-73
2023/05/29 10:23:01;;;;;;;2.95;1.60;;;14.90;99.90;;;;;;4990410;28;20206;-73
2023/05/29 10:25:34;;;;;;;3.85;1.80;;;14.70;99.90;;;;;;4981985;28;20199;-74
2023/05/29 10:28:07;;;;;;;5.05;1.92;;;14.70;99.90;;;;;;4990614;28;20251;-73
2023/05/29 10:30:42;;;;;;;5.43;1.80;;;14.60;99.90;;;;;;4991758;28;20199;-73
2023/05/29 10:33:34;;;;;;;4.50;2.13;;;14.50;99.90;;;;;;4993238;28;20207;-73
2023/05/29 10:36:19;;;;;;;4.70;2.00;;;14.40;99.90;;;;;;4992411;28;20576;-73
2023/05/29 10:38:54;;;;;;;4.35;1.80;;;14.20;99.90;;;;;;4991434;28;20197;-74
2023/05/29 10:41:40;;;;;;;5.60;1.90;;;14.10;99.90;;;;;;4990854;28;20265;-74
2023/05/29 10:44:43;;;;;;;2.55;1.65;;;14.00;99.90;;;;;;4994192;28;20219;-73
2023/05/29 10:47:15;;;;;;;3.30;2.08;;;14.00;99.90;;;;;;4996288;28;20210;-74
2023/05/29 10:49:54;;;;;;;4.00;2.05;;;13.90;99.90;;;;;;5007470;28;20191;-74
2023/05/29 10:52:25;;;;;;;4.38;2.15;;;13.90;99.90;;;;;;5017325;28;20202;-74
2023/05/29 10:54:59;;;;;;;4.85;2.40;;;13.90;99.90;;;;;;5017354;28;20214;-74
2023/05/29 10:57:35;;;;;;;5.15;1.95;;;13.80;99.90;;;;;;4997989;28;20286;-74
2023/05/29 11:00:14;;;;;;;4.90;2.10;;;13.70;99.90;;;;;;4980384;28;20719;-73
2023/05/29 11:02:46;;;;;;;4.22;2.20;;;13.60;99.90;;;;;;4997533;28;20652;-73
2023/05/29 11:05:25;;;;;;;4.28;2.15;;;13.50;99.90;;;;;;4995999;28;20563;-73
2023/05/29 11:08:02;;;;;;;5.45;2.22;;;13.40;99.90;;;;;;4997706;28;20216;-74
2023/05/29 11:11:01;;;;;;;4.47;2.10;;;13.40;99.90;;;;;;4997002;28;20643;-74
2023/05/29 11:13:36;;;;;;;3.85;1.98;;;13.40;99.90;;;;;;4997508;28;20218;-73
2023/05/29 11:16:15;;;;;;;4.88;2.38;;;13.30;99.90;;;;;;4997328;28;20599;-74
2023/05/29 11:18:47;;;;;;;4.63;2.40;;;13.30;99.90;;;;;;4996527;28;20206;-73
2023/05/29 11:21:33;;;;;;;4.88;2.50;;;13.30;99.90;;;;;;4997054;28;20194;-73
2023/05/29 11:24:06;;;;;;;5.07;2.55;;;13.20;99.90;;;;;;4978008;28;20192;-73
2023/05/29 11:26:41;;;;;;;4.82;2.35;;;13.20;99.90;;;;;;4985880;28;20714;-73
2023/05/29 11:29:13;;;;;;;5.07;2.60;;;13.20;99.90;;;;;;4995847;28;20678;-74
2023/05/29 11:31:45;;;;;;;4.25;2.50;;;13.20;99.90;;;;;;4997649;28;20203;-73
2023/05/29 11:34:19;;;;;;;5.90;2.50;;;13.10;99.90;;;;;;4996628;28;20203;-73
2023/05/29 11:36:50;;;;;;;6.15;2.70;;;13.10;99.90;;;;;;4996911;28;20556;-74
2023/05/29 11:39:21;;;;;;;4.50;2.38;;;13.10;99.90;;;;;;4996572;28;20207;-74
2023/05/29 11:41:57;;;;;;;3.42;2.22;;;13.10;99.90;;;;;;4996302;28;20261;-73
2023/05/29 11:44:28;;;;;;;5.68;2.30;;;13.10;99.90;;;;;;4997243;28;20559;-73
2023/05/29 11:47:06;;;;;;;4.00;1.90;;;13.10;99.90;;;;;;4996764;28;20198;-73
2023/05/29 11:49:38;;;;;;;3.10;1.85;;;13.10;99.90;;;;;;4995745;28;20250;-73
2023/05/29 11:52:13;;;;;;;4.38;1.70;;;13.20;99.90;;;;;;4995549;28;20204;-74
2023/05/29 11:54:47;;;;;;;3.03;1.70;;;13.20;99.90;;;;;;4995402;28;20286;-73
2023/05/29 11:57:24;;;;;;;2.63;1.35;;;13.40;99.90;;;;;;4996335;28;20607;-74
2023/05/29 11:59:58;;;;;;;2.25;1.40;;;13.50;99.90;;;;;;4996631;28;20253;-73
2023/05/29 12:02:32;;;;;;;3.15;1.50;;;13.70;99.90;;;;;;4996582;28;20604;-73
2023/05/29 12:05:07;;;;;;;2.55;1.33;;;13.80;99.90;;;;;;4994761;28;20632;-73
2023/05/29 12:07:39;;;;;;;6.22;2.22;;;13.90;99.90;;;;;;4989416;28;20203;-74
2023/05/29 12:10:17;;;;;;;3.40;1.20;;;13.90;99.90;;;;;;4994845;28;20675;-73
2023/05/29 12:12:54;;;;;;;3.13;1.35;;;13.90;99.90;;;;;;4996431;28;20222;-73
2023/05/29 12:15:26;;;;;;;2.25;1.17;;;13.90;99.90;;;;;;4993115;28;20548;-73
2023/05/29 12:17:58;;;;;;;2.10;1.20;;;13.90;99.90;;;;;;4996134;28;20203;-73
2023/05/29 12:20:30;;;;;;;2.17;1.40;;;13.80;99.90;;;;;;4995810;28;20204;-73
2023/05/29 12:23:05;;;;;;;2.63;1.20;;;13.80;99.90;;;;;;4991954;28;20310;-73
2023/05/29 12:25:38;;;;;;;2.35;1.35;;;13.70;99.90;;;;;;4993843;28;20196;-73
2023/05/29 12:28:18;;;;;;;4.40;1.33;;;13.60;99.90;;;;;;4993564;28;20222;-73
2023/05/29 12:30:49;;;;;;;1.85;1.13;;;13.50;99.90;;;;;;4995162;28;20196;-73
2023/05/29 12:33:33;;;;;;;1.50;1.33;;;13.30;99.90;;;;;;4994366;28;20203;-73
2023/05/29 12:36:10;;;;;;;3.25;1.30;;;13.30;99.90;;;;;;4993276;28;20203;-73
2023/05/29 12:38:51;;;;;;;3.38;1.50;;;13.20;99.90;;;;;;4995024;28;20199;-73
2023/05/29 12:41:29;;;;;;;2.47;1.30;;;13.20;99.90;;;;;;4993630;28;20678;-73
2023/05/29 12:44:04;;;;;;;2.08;1.30;;;13.20;99.90;;;;;;4993678;28;20200;-73
2023/05/29 12:46:42;;;;;;;2.65;1.38;;;13.20;99.90;;;;;;4994090;28;20310;-73
2023/05/29 12:49:17;;;;;;;2.50;1.58;;;13.20;99.90;;;;;;4994197;28;20255;-74
2023/05/29 12:51:49;;;;;;;4.07;1.88;;;13.20;99.90;;;;;;4993593;28;20542;-73
2023/05/29 12:54:20;;;;;;;3.35;1.73;;;13.10;99.90;;;;;;4994963;28;20554;-73
2023/05/29 12:56:51;;;;;;;3.42;1.60;;;13.10;99.90;;;;;;4994899;28;20283;-73
2023/05/29 12:59:24;;;;;;;3.63;1.65;;;13.10;99.90;;;;;;4992937;28;20224;-72
2023/05/29 13:01:55;;;;;;;3.20;1.80;;;13.10;99.90;;;;;;4993986;28;20434;-73
2023/05/29 13:04:27;;;;;;;3.90;1.70;;;13.00;99.90;;;;;;4992817;28;20223;-73
2023/05/29 13:06:58;;;;;;;5.80;2.10;;;13.00;99.90;;;;;;4993398;28;20691;-73
2023/05/29 13:09:29;;;;;;;3.35;1.63;;;13.00;99.90;;;;;;4994845;28;20226;-73
2023/05/29 13:12:00;;;;;;;3.85;1.65;;;13.00;99.90;;;;;;4991478;28;20203;-74
2023/05/29 13:14:33;;;;;;;2.83;1.83;;;13.00;99.90;;;;;;4995154;28;20215;-73
2023/05/29 13:17:05;;;;;;;3.60;1.60;;;12.90;99.90;;;;;;4993812;28;20214;-73